createdAt,value
2022-09-18T00:00:39.077Z,10.50
2022-09-18T00:01:42.027Z,10.26
2022-09-18T00:02:44.690Z,10.40
2022-09-18T00:03:47.631Z,10.20
2022-09-18T00:04:49.934Z,10.54
2022-09-18T00:05:52.116Z,10.19
2022-09-18T00:06:54.320Z,10.19
2022-09-18T00:07:56.691Z,10.15
2022-09-18T00:09:00.931Z,10.21
2022-09-18T00:10:03.445Z,10.22
2022-09-18T00:11:08.179Z,10.08
2022-09-18T00:12:10.612Z,10.10
2022-09-18T00:13:14.951Z,9.99
2022-09-18T00:14:22.484Z,10.09
2022-09-18T00:15:24.714Z,10.08
2022-09-18T00:16:27.168Z,10.09
2022-09-18T00:17:29.449Z,10.04
2022-09-18T00:18:31.952Z,9.94
2022-09-18T00:19:34.099Z,9.92
2022-09-18T00:20:37.670Z,9.91
2022-09-18T00:21:41.700Z,9.99
2022-09-18T00:22:44.337Z,10.04
2022-09-18T00:23:46.963Z,9.99
2022-09-18T00:24:49.161Z,10.01
2022-09-18T00:25:51.501Z,10.04
2022-09-18T00:26:53.718Z,10.01
2022-09-18T00:27:56.046Z,10.07
2022-09-18T00:28:59.140Z,9.95
2022-09-18T00:30:01.394Z,9.97
2022-09-18T00:31:14.032Z,9.89
2022-09-18T00:32:16.370Z,9.93
2022-09-18T00:33:18.548Z,9.92
2022-09-18T00:34:20.947Z,10.01
2022-09-18T00:35:23.222Z,10.01
2022-09-18T00:36:26.069Z,9.89
2022-09-18T00:37:28.289Z,9.91
2022-09-18T00:38:34.389Z,10.05
2022-09-18T00:39:36.504Z,9.83
2022-09-18T00:40:39.550Z,9.93
2022-09-18T00:41:43.001Z,9.92
2022-09-18T00:42:45.207Z,9.85
2022-09-18T00:43:47.410Z,9.86
2022-09-18T00:44:49.595Z,9.74
2022-09-18T00:46:02.441Z,9.80
2022-09-18T00:47:10.172Z,9.85
2022-09-18T00:48:12.359Z,9.86
2022-09-18T00:49:23.494Z,9.98
2022-09-18T00:50:27.343Z,9.93
2022-09-18T00:51:32.543Z,9.74
2022-09-18T00:52:54.399Z,9.75
2022-09-18T00:54:25.482Z,9.79
2022-09-18T00:55:38.060Z,9.89
2022-09-18T00:56:40.960Z,10.00
2022-09-18T00:57:51.230Z,9.96
2022-09-18T00:58:53.751Z,9.95
2022-09-18T00:59:56.735Z,9.97
2022-09-18T01:00:59.508Z,9.91
2022-09-18T01:02:02.639Z,9.82
2022-09-18T01:03:05.394Z,9.88
2022-09-18T01:04:11.945Z,9.77
2022-09-18T01:05:28.088Z,9.76
2022-09-18T01:06:33.093Z,9.73
2022-09-18T01:07:53.710Z,9.83
2022-09-18T01:09:08.202Z,9.79
2022-09-18T01:10:19.443Z,9.88
2022-09-18T01:11:34.809Z,9.83
2022-09-18T01:12:55.961Z,9.72
2022-09-18T01:14:16.892Z,9.75
2022-09-18T01:15:30.888Z,9.84
2022-09-18T01:16:57.560Z,9.85
2022-09-18T01:18:10.823Z,9.88
2022-09-18T01:19:41.090Z,9.91
2022-09-18T01:21:00.939Z,9.85
2022-09-18T01:22:24.045Z,9.76
2022-09-18T01:23:38.840Z,9.89
2022-09-18T01:25:07.581Z,9.97
2022-09-18T01:26:31.103Z,9.74
2022-09-18T01:28:07.483Z,9.68
2022-09-18T01:29:25.665Z,9.73
2022-09-18T01:30:29.626Z,9.74
2022-09-18T01:31:39.112Z,9.64
2022-09-18T01:32:47.175Z,9.68
2022-09-18T01:34:13.956Z,9.72
2022-09-18T01:35:41.406Z,9.79
2022-09-18T01:36:51.205Z,9.88
2022-09-18T01:38:02.941Z,9.71
2022-09-18T01:39:31.171Z,9.78
2022-09-18T01:40:44.235Z,9.79
2022-09-18T01:41:51.192Z,9.75
2022-09-18T01:42:59.661Z,9.79
2022-09-18T01:44:11.876Z,9.76
2022-09-18T01:45:20.927Z,9.63
2022-09-18T01:46:25.590Z,9.58
2022-09-18T01:47:32.521Z,9.70
2022-09-18T01:48:51.856Z,9.70
2022-09-18T01:49:56.711Z,9.64
2022-09-18T01:51:06.134Z,9.64
2022-09-18T01:52:13.615Z,9.66
2022-09-18T01:53:37.526Z,9.72
2022-09-18T01:54:43.282Z,9.74
2022-09-18T01:55:53.564Z,9.68
2022-09-18T01:57:03.781Z,9.71
2022-09-18T01:58:11.393Z,9.60
2022-09-18T01:59:26.122Z,9.71
2022-09-18T02:00:42.060Z,9.73
2022-09-18T02:01:47.896Z,9.74
2022-09-18T02:03:02.790Z,9.82
2022-09-18T02:04:13.049Z,9.74
2022-09-18T02:05:22.322Z,9.74
2022-09-18T02:06:41.749Z,9.66
2022-09-18T02:08:02.424Z,9.67
2022-09-18T02:09:06.270Z,9.61
2022-09-18T02:10:08.894Z,9.63
2022-09-18T02:11:15.087Z,9.66
2022-09-18T02:12:22.630Z,9.54
2022-09-18T02:13:34.661Z,9.69
2022-09-18T02:14:42.657Z,9.70
2022-09-18T02:16:07.870Z,9.62
2022-09-18T02:17:20.616Z,9.71
2022-09-18T02:18:29.798Z,9.69
2022-09-18T02:19:38.760Z,9.67
2022-09-18T02:20:44.387Z,9.73
2022-09-18T02:21:48.993Z,9.64
2022-09-18T02:22:54.863Z,9.62
2022-09-18T02:24:19.248Z,9.84
2022-09-18T02:25:25.673Z,9.82
2022-09-18T02:26:28.224Z,9.90
2022-09-18T02:27:32.869Z,9.82
2022-09-18T02:28:38.677Z,9.76
2022-09-18T02:29:43.978Z,9.67
2022-09-18T02:30:46.330Z,9.68
2022-09-18T02:31:49.843Z,9.70
2022-09-18T02:32:54.837Z,9.91
2022-09-18T02:33:58.286Z,9.79
2022-09-18T02:35:00.585Z,9.80
2022-09-18T02:36:39.979Z,9.71
2022-09-18T02:37:54.161Z,9.77
2022-09-18T02:39:35.781Z,9.79
2022-09-18T02:41:04.143Z,9.79
2022-09-18T02:42:42.126Z,9.66
2022-09-18T02:44:06.038Z,9.83
2022-09-18T02:45:33.400Z,9.69
2022-09-18T02:46:48.957Z,9.88
2022-09-18T02:48:09.261Z,9.78
2022-09-18T02:49:28.256Z,9.82
2022-09-18T02:51:03.168Z,9.89
2022-09-18T02:52:27.325Z,10.01
2022-09-18T02:53:42.486Z,10.11
2022-09-18T02:54:51.122Z,10.01
2022-09-18T02:56:25.171Z,9.96
2022-09-18T02:57:41.508Z,9.74
2022-09-18T02:58:54.194Z,9.74
2022-09-18T03:00:00.478Z,9.78
2022-09-18T03:01:05.932Z,9.69
2022-09-18T03:02:09.121Z,9.66
2022-09-18T03:03:15.730Z,9.61
2022-09-18T03:04:26.688Z,9.68
2022-09-18T03:05:39.851Z,9.73
2022-09-18T03:06:42.133Z,9.67
2022-09-18T03:07:44.413Z,9.72
2022-09-18T03:08:46.812Z,9.70
2022-09-18T03:09:49.563Z,9.69
2022-09-18T03:10:51.941Z,9.81
2022-09-18T03:11:55.788Z,9.80
2022-09-18T03:12:58.110Z,9.67
2022-09-18T03:14:00.267Z,9.78
2022-09-18T03:15:02.481Z,9.80
2022-09-18T03:16:04.841Z,9.86
2022-09-18T03:17:07.243Z,9.82
2022-09-18T03:18:09.439Z,9.89
2022-09-18T03:19:14.740Z,9.79
2022-09-18T03:20:18.528Z,9.86
2022-09-18T03:21:23.530Z,9.77
2022-09-18T03:22:26.136Z,9.77
2022-09-18T03:23:28.311Z,9.76
2022-09-18T03:24:42.071Z,9.71
2022-09-18T03:25:44.561Z,9.66
2022-09-18T03:26:48.140Z,9.74
2022-09-18T03:27:54.859Z,9.82
2022-09-18T03:29:02.027Z,9.83
2022-09-18T03:30:07.200Z,10.03
2022-09-18T03:31:10.805Z,10.07
2022-09-18T03:32:13.106Z,9.93
2022-09-18T03:33:20.281Z,9.76
2022-09-18T03:34:22.529Z,9.78
2022-09-18T03:35:25.274Z,9.81
2022-09-18T03:36:28.394Z,9.80
2022-09-18T03:37:31.912Z,9.79
2022-09-18T03:38:37.724Z,9.86
2022-09-18T03:39:41.095Z,9.80
2022-09-18T03:40:47.987Z,9.86
2022-09-18T03:41:52.010Z,9.79
2022-09-18T03:42:54.277Z,9.84
2022-09-18T03:43:57.499Z,9.83
2022-09-18T03:45:00.377Z,10.02
2022-09-18T03:46:02.900Z,9.90
2022-09-18T03:47:05.193Z,9.83
2022-09-18T03:48:07.407Z,9.88
2022-09-18T03:49:10.931Z,10.24
2022-09-18T03:50:15.363Z,10.14
2022-09-18T03:51:19.088Z,10.13
2022-09-18T03:52:21.837Z,10.15
2022-09-18T03:53:38.041Z,10.01
2022-09-18T03:54:58.720Z,10.13
2022-09-18T03:56:38.497Z,10.16
2022-09-18T03:57:40.688Z,9.99
2022-09-18T03:59:06.223Z,9.92
2022-09-18T04:00:09.889Z,9.91
2022-09-18T04:01:18.080Z,9.85
2022-09-18T04:02:49.135Z,9.80
2022-09-18T04:04:17.218Z,9.88
2022-09-18T04:05:50.093Z,9.92
2022-09-18T04:07:11.009Z,9.86
2022-09-18T04:08:29.205Z,9.77
2022-09-18T04:09:42.748Z,9.81
2022-09-18T04:10:47.578Z,9.81
2022-09-18T04:11:50.464Z,9.90
2022-09-18T04:12:53.914Z,9.95
2022-09-18T04:14:01.270Z,9.86
2022-09-18T04:15:04.079Z,9.86
2022-09-18T04:16:07.017Z,9.93
2022-09-18T04:17:09.426Z,9.84
2022-09-18T04:18:11.984Z,9.86
2022-09-18T04:19:14.140Z,9.87
2022-09-18T04:20:16.360Z,9.76
2022-09-18T04:21:18.520Z,9.89
2022-09-18T04:22:21.809Z,9.77
2022-09-18T04:23:23.995Z,9.82
2022-09-18T04:24:26.289Z,9.70
2022-09-18T04:25:28.721Z,9.69
2022-09-18T04:26:33.635Z,9.64
2022-09-18T04:27:36.968Z,9.74
2022-09-18T04:28:39.218Z,9.54
2022-09-18T04:29:42.466Z,9.63
2022-09-18T04:30:48.533Z,9.69
2022-09-18T04:31:51.717Z,9.76
2022-09-18T04:32:56.457Z,9.78
2022-09-18T04:34:00.738Z,9.89
2022-09-18T04:35:03.008Z,9.76
2022-09-18T04:36:05.471Z,9.79
2022-09-18T04:37:10.313Z,9.75
2022-09-18T04:38:13.453Z,9.82
2022-09-18T04:39:16.145Z,9.76
2022-09-18T04:40:18.381Z,9.76
2022-09-18T04:41:21.714Z,9.77
2022-09-18T04:42:23.903Z,9.77
2022-09-18T04:43:27.616Z,9.72
2022-09-18T04:44:29.835Z,9.69
2022-09-18T04:45:32.731Z,9.77
2022-09-18T04:46:35.162Z,9.70
2022-09-18T04:47:37.921Z,9.70
2022-09-18T04:48:41.471Z,9.67
2022-09-18T04:49:43.685Z,9.71
2022-09-18T04:50:47.248Z,9.84
2022-09-18T04:51:53.196Z,9.78
2022-09-18T04:52:55.697Z,9.97
2022-09-18T04:53:58.121Z,9.85
2022-09-18T04:55:01.105Z,9.89
2022-09-18T04:56:03.452Z,9.75
2022-09-18T04:57:08.542Z,9.84
2022-09-18T04:58:13.198Z,9.75
2022-09-18T04:59:17.400Z,9.99
2022-09-18T05:00:22.191Z,9.79
2022-09-18T05:01:24.455Z,9.74
2022-09-18T05:02:26.750Z,9.80
2022-09-18T05:03:29.652Z,9.80
2022-09-18T05:04:32.225Z,9.90
2022-09-18T05:05:42.286Z,9.91
2022-09-18T05:06:46.365Z,9.85
2022-09-18T05:07:48.565Z,9.83
2022-09-18T05:08:52.948Z,9.91
2022-09-18T05:09:56.551Z,9.92
2022-09-18T05:10:58.795Z,9.92
2022-09-18T05:12:03.988Z,9.83
2022-09-18T05:13:07.870Z,10.06
2022-09-18T05:14:15.742Z,10.05
2022-09-18T05:15:22.924Z,9.98
2022-09-18T05:16:27.001Z,9.86
2022-09-18T05:18:10.551Z,10.07
2022-09-18T05:19:13.616Z,10.12
2022-09-18T05:20:16.614Z,10.08
2022-09-18T05:21:19.556Z,10.06
2022-09-18T05:22:21.773Z,10.04
2022-09-18T05:23:26.521Z,9.97
2022-09-18T05:24:28.836Z,9.92
2022-09-18T05:25:31.492Z,9.79
2022-09-18T05:26:35.209Z,9.83
2022-09-18T05:27:37.444Z,9.85
2022-09-18T05:28:42.552Z,9.82
2022-09-18T05:29:44.733Z,9.93
2022-09-18T05:30:58.348Z,9.97
2022-09-18T05:32:03.629Z,9.88
2022-09-18T05:33:11.526Z,9.92
2022-09-18T05:34:15.715Z,9.85
2022-09-18T05:35:18.140Z,10.01
2022-09-18T05:36:20.362Z,9.89
2022-09-18T05:37:24.918Z,9.93
2022-09-18T05:38:30.324Z,9.97
2022-09-18T05:39:33.197Z,9.82
2022-09-18T05:40:38.386Z,9.90
2022-09-18T05:41:40.828Z,9.85
2022-09-18T05:42:49.595Z,9.82
2022-09-18T05:43:52.685Z,9.78
2022-09-18T05:44:57.644Z,9.71
2022-09-18T05:46:03.693Z,9.76
2022-09-18T05:47:16.223Z,9.85
2022-09-18T05:48:18.429Z,9.95
2022-09-18T05:49:21.401Z,9.88
2022-09-18T05:50:25.123Z,10.06
2022-09-18T05:51:27.501Z,10.06
2022-09-18T05:52:29.850Z,9.97
2022-09-18T05:53:32.243Z,10.01
2022-09-18T05:54:50.102Z,10.03
2022-09-18T05:55:52.452Z,10.01
2022-09-18T05:56:54.764Z,10.00
2022-09-18T05:57:58.219Z,10.02
2022-09-18T05:59:00.368Z,9.92
2022-09-18T06:00:05.460Z,10.02
2022-09-18T06:01:09.721Z,10.15
2022-09-18T06:02:31.919Z,10.12
2022-09-18T06:03:44.188Z,10.09
2022-09-18T06:04:48.441Z,10.13
2022-09-18T06:05:54.856Z,10.06
2022-09-18T06:06:57.850Z,9.98
2022-09-18T06:08:02.467Z,10.05
2022-09-18T06:09:04.927Z,10.01
2022-09-18T06:10:08.209Z,9.90
2022-09-18T06:11:10.484Z,10.01
2022-09-18T06:12:12.639Z,9.90
2022-09-18T06:13:17.678Z,9.93
2022-09-18T06:14:24.819Z,9.94
2022-09-18T06:15:27.073Z,10.05
2022-09-18T06:16:29.351Z,10.14
2022-09-18T06:17:35.510Z,9.98
2022-09-18T06:18:40.076Z,10.21
2022-09-18T06:19:42.547Z,10.26
2022-09-18T06:20:54.583Z,10.13
2022-09-18T06:21:59.828Z,10.03
2022-09-18T06:23:03.375Z,9.96
2022-09-18T06:24:16.524Z,10.19
2022-09-18T06:25:48.697Z,10.26
2022-09-18T06:26:54.235Z,10.15
2022-09-18T06:28:00.415Z,10.13
2022-09-18T06:29:03.642Z,10.25
2022-09-18T06:30:16.340Z,10.18
2022-09-18T06:31:19.097Z,10.20
2022-09-18T06:32:45.257Z,10.25
2022-09-18T06:33:49.025Z,10.18
2022-09-18T06:34:55.752Z,10.25
2022-09-18T06:36:01.345Z,10.38
2022-09-18T06:37:16.797Z,10.40
2022-09-18T06:38:19.493Z,10.20
2022-09-18T06:39:26.545Z,10.19
2022-09-18T06:40:33.969Z,10.30
2022-09-18T06:41:54.209Z,10.27
2022-09-18T06:43:13.669Z,10.37
2022-09-18T06:44:38.717Z,10.44
2022-09-18T06:45:42.081Z,10.39
2022-09-18T06:46:45.146Z,10.50
2022-09-18T06:48:07.860Z,10.45
2022-09-18T06:49:13.407Z,10.55
2022-09-18T06:50:19.782Z,10.46
2022-09-18T06:51:22.652Z,10.48
2022-09-18T06:52:43.345Z,10.61
2022-09-18T06:53:46.231Z,10.70
2022-09-18T06:54:49.008Z,10.95
2022-09-18T06:56:05.473Z,10.78
2022-09-18T06:57:10.856Z,10.54
2022-09-18T06:58:13.032Z,10.81
2022-09-18T06:59:15.190Z,10.85
2022-09-18T07:00:17.353Z,10.69
2022-09-18T07:01:20.085Z,10.82
2022-09-18T07:02:25.324Z,10.60
2022-09-18T07:03:58.861Z,10.66
2022-09-18T07:05:07.225Z,10.62
2022-09-18T07:06:14.555Z,10.79
2022-09-18T07:07:19.748Z,10.98
2022-09-18T07:08:23.885Z,10.94
2022-09-18T07:09:30.443Z,10.99
2022-09-18T07:10:44.844Z,11.12
2022-09-18T07:11:47.297Z,10.95
2022-09-18T07:12:50.012Z,10.71
2022-09-18T07:13:54.178Z,10.63
2022-09-18T07:14:57.104Z,10.78
2022-09-18T07:16:02.394Z,10.50
2022-09-18T07:17:09.108Z,10.48
2022-09-18T07:18:11.854Z,10.58
2022-09-18T07:19:14.240Z,10.43
2022-09-18T07:20:16.585Z,10.48
2022-09-18T07:21:19.798Z,10.54
2022-09-18T07:22:22.130Z,10.66
2022-09-18T07:23:24.580Z,10.60
2022-09-18T07:24:28.337Z,10.53
2022-09-18T07:25:33.872Z,10.62
2022-09-18T07:26:36.456Z,10.63
2022-09-18T07:27:39.920Z,10.73
2022-09-18T07:28:42.212Z,10.83
2022-09-18T07:30:05.037Z,10.70
2022-09-18T07:31:08.380Z,10.67
2022-09-18T07:32:11.516Z,10.68
2022-09-18T07:33:13.703Z,10.90
2022-09-18T07:34:21.998Z,10.61
2022-09-18T07:35:24.552Z,10.78
2022-09-18T07:36:27.853Z,10.69
2022-09-18T07:37:30.169Z,10.72
2022-09-18T07:38:50.716Z,10.58
2022-09-18T07:39:54.338Z,10.72
2022-09-18T07:41:25.832Z,10.76
2022-09-18T07:42:28.787Z,10.73
2022-09-18T07:43:31.855Z,10.84
2022-09-18T07:44:35.978Z,10.97
2022-09-18T07:45:38.809Z,11.02
2022-09-18T07:46:55.372Z,11.01
2022-09-18T07:51:54.269Z,10.97
2022-09-18T07:53:40.145Z,11.03
2022-09-18T07:55:08.715Z,11.05
2022-09-18T07:56:12.237Z,11.03
2022-09-18T07:57:15.195Z,11.26
2022-09-18T07:58:30.761Z,11.30
2022-09-18T07:59:39.580Z,11.36
2022-09-18T08:00:42.024Z,11.46
2022-09-18T08:01:44.904Z,11.64
2022-09-18T08:02:49.116Z,11.49
2022-09-18T08:04:11.356Z,11.69
2022-09-18T08:05:33.902Z,11.46
2022-09-18T08:06:37.084Z,11.54
2022-09-18T08:07:54.885Z,11.26
2022-09-18T08:09:11.080Z,11.36
2022-09-18T08:10:33.430Z,11.45
2022-09-18T08:12:04.731Z,11.73
2022-09-18T08:13:13.059Z,11.81
2022-09-18T08:14:28.791Z,11.58
2022-09-18T08:16:06.982Z,11.61
2022-09-18T08:17:35.296Z,11.60
2022-09-18T08:19:03.883Z,11.45
2022-09-18T08:20:13.431Z,11.69
2022-09-18T08:21:19.126Z,11.90
2022-09-18T08:22:24.791Z,11.95
2022-09-18T08:23:31.269Z,11.95
2022-09-18T08:24:34.877Z,11.65
2022-09-18T08:25:38.215Z,11.59
2022-09-18T08:26:40.594Z,11.74
2022-09-18T08:27:43.224Z,11.67
2022-09-18T08:28:47.785Z,11.58
2022-09-18T08:29:50.117Z,11.83
2022-09-18T08:30:53.589Z,11.74
2022-09-18T08:31:56.186Z,11.89
2022-09-18T08:33:03.585Z,11.67
2022-09-18T08:34:06.731Z,11.59
2022-09-18T08:35:09.702Z,11.80
2022-09-18T08:36:12.076Z,11.63
2022-09-18T08:37:22.534Z,11.65
2022-09-18T08:38:43.617Z,11.96
2022-09-18T08:40:05.524Z,11.75
2022-09-18T08:41:46.825Z,11.95
2022-09-18T08:43:16.695Z,11.83
2022-09-18T08:44:32.491Z,11.49
2022-09-18T08:45:56.356Z,11.63
2022-09-18T08:47:12.823Z,11.76
2022-09-18T08:48:38.731Z,11.53
2022-09-18T08:49:49.249Z,11.71
2022-09-18T08:51:21.719Z,11.71
2022-09-18T08:52:28.960Z,11.91
2022-09-18T08:53:46.696Z,11.65
2022-09-18T08:55:22.960Z,11.89
2022-09-18T08:56:46.686Z,11.72
2022-09-18T08:58:00.057Z,11.89
2022-09-18T08:59:11.326Z,12.02
2022-09-18T09:00:44.176Z,12.03
2022-09-18T09:02:25.016Z,12.06
2022-09-18T09:03:56.373Z,12.10
2022-09-18T09:05:03.752Z,11.93
2022-09-18T09:06:24.652Z,11.73
2022-09-18T09:08:01.310Z,11.87
2022-09-18T09:09:32.776Z,11.91
2022-09-18T09:10:55.352Z,12.11
2022-09-18T09:12:00.942Z,12.37
2022-09-18T09:13:42.318Z,12.28
2022-09-18T09:14:57.613Z,12.36
2022-09-18T09:16:23.944Z,12.64
2022-09-18T09:17:36.109Z,12.29
2022-09-18T09:18:53.107Z,12.41
2022-09-18T09:20:20.402Z,12.97
2022-09-18T09:21:32.143Z,13.07
2022-09-18T09:22:42.886Z,13.00
2022-09-18T09:23:57.344Z,13.39
2022-09-18T09:25:24.895Z,13.33
2022-09-18T09:26:46.030Z,13.49
2022-09-18T09:28:32.833Z,13.77
2022-09-18T09:30:12.514Z,13.59
2022-09-18T09:31:40.169Z,13.53
2022-09-18T09:33:41.573Z,13.66
2022-09-18T09:35:20.385Z,13.60
2022-09-18T09:36:43.685Z,14.00
2022-09-18T09:37:48.471Z,13.89
2022-09-18T09:39:22.800Z,14.04
2022-09-18T09:40:38.745Z,14.66
2022-09-18T09:41:51.716Z,14.80
2022-09-18T09:43:05.478Z,14.34
2022-09-18T09:44:16.677Z,14.88
2022-09-18T09:45:29.010Z,15.07
2022-09-18T09:46:54.772Z,14.94
2022-09-18T09:48:22.898Z,15.28
2022-09-18T09:49:31.697Z,14.40
2022-09-18T09:50:56.869Z,14.91
2022-09-18T09:52:25.286Z,14.81
2022-09-18T09:53:30.061Z,15.29
2022-09-18T09:54:33.134Z,15.24
2022-09-18T09:56:04.820Z,15.46
2022-09-18T09:57:45.285Z,15.54
2022-09-18T09:59:12.309Z,15.52
2022-09-18T10:00:46.168Z,15.45
2022-09-18T10:02:22.066Z,15.62
2022-09-18T10:03:42.428Z,14.93
2022-09-18T10:05:28.070Z,14.88
2022-09-18T10:06:35.636Z,15.20
2022-09-18T10:07:45.997Z,15.61
2022-09-18T10:09:02.316Z,15.09
2022-09-18T10:10:29.857Z,15.28
2022-09-18T10:11:35.827Z,15.23
2022-09-18T10:12:55.198Z,15.10
2022-09-18T10:14:05.336Z,15.37
2022-09-18T10:15:17.816Z,15.40
2022-09-18T10:16:26.054Z,15.23
2022-09-18T10:17:35.668Z,14.94
2022-09-18T10:18:41.952Z,14.87
2022-09-18T10:19:45.589Z,15.22
2022-09-18T10:20:54.595Z,15.40
2022-09-18T10:21:57.430Z,15.71
2022-09-18T10:23:14.995Z,15.67
2022-09-18T10:24:44.331Z,15.44
2022-09-18T10:25:54.497Z,15.87
2022-09-18T10:27:05.616Z,15.15
2022-09-18T10:28:14.282Z,15.10
2022-09-18T10:29:18.109Z,14.97
2022-09-18T10:30:25.568Z,15.39
2022-09-18T10:31:49.213Z,15.22
2022-09-18T10:32:52.955Z,15.50
2022-09-18T10:34:02.721Z,15.82
2022-09-18T10:35:30.691Z,15.69
2022-09-18T10:36:38.176Z,16.00
2022-09-18T10:37:45.973Z,15.98
2022-09-18T10:38:59.928Z,16.01
2022-09-18T10:40:39.857Z,16.06
2022-09-18T10:41:44.921Z,15.81
2022-09-18T10:42:54.908Z,15.47
2022-09-18T10:44:07.004Z,15.46
2022-09-18T10:45:42.902Z,15.28
2022-09-18T10:47:16.686Z,15.43
2022-09-18T10:48:25.923Z,15.32
2022-09-18T10:49:32.953Z,14.94
2022-09-18T10:50:37.427Z,15.13
2022-09-18T10:51:39.689Z,15.22
2022-09-18T10:52:47.384Z,15.44
2022-09-18T10:54:04.281Z,15.75
2022-09-18T10:55:30.636Z,15.94
2022-09-18T10:56:43.098Z,15.86
2022-09-18T10:58:02.699Z,15.69
2022-09-18T10:59:29.406Z,15.60
2022-09-18T11:00:37.222Z,15.36
2022-09-18T11:01:44.664Z,15.44
2022-09-18T11:02:56.498Z,15.72
2022-09-18T11:04:06.569Z,15.40
2022-09-18T11:05:35.655Z,15.22
2022-09-18T11:06:38.103Z,15.27
2022-09-18T11:07:53.725Z,15.55
2022-09-18T11:08:59.988Z,15.92
2022-09-18T11:10:08.646Z,15.84
2022-09-18T11:11:21.244Z,16.12
2022-09-18T11:12:28.918Z,16.65
2022-09-18T11:13:31.958Z,16.78
2022-09-18T11:14:43.837Z,17.09
2022-09-18T11:15:57.669Z,17.75
2022-09-18T11:17:02.050Z,17.92
2022-09-18T11:18:16.002Z,16.72
2022-09-18T11:19:27.320Z,16.75
2022-09-18T11:20:39.028Z,17.32
2022-09-18T11:21:51.497Z,16.97
2022-09-18T11:23:24.778Z,17.29
2022-09-18T11:24:37.975Z,17.13
2022-09-18T11:25:47.025Z,16.78
2022-09-18T11:27:01.006Z,16.26
2022-09-18T11:28:26.386Z,15.82
2022-09-18T11:29:39.767Z,15.87
2022-09-18T11:30:56.647Z,15.98
2022-09-18T11:32:17.684Z,15.51
2022-09-18T11:33:31.113Z,15.49
2022-09-18T11:34:43.852Z,15.59
2022-09-18T11:35:51.895Z,15.74
2022-09-18T11:36:59.973Z,15.97
2022-09-18T11:38:07.816Z,15.84
2022-09-18T11:39:15.563Z,15.80
2022-09-18T11:40:24.572Z,16.47
2022-09-18T11:41:34.866Z,16.98
2022-09-18T11:42:44.989Z,16.68
2022-09-18T11:44:13.945Z,16.91
2022-09-18T11:45:40.668Z,16.17
2022-09-18T11:47:15.180Z,16.17
2022-09-18T11:48:25.139Z,16.65
2022-09-18T11:49:47.873Z,16.94
2022-09-18T11:50:55.695Z,17.09
2022-09-18T11:52:23.581Z,16.62
2022-09-18T11:53:44.631Z,16.91
2022-09-18T11:54:52.648Z,16.68
2022-09-18T11:56:15.245Z,16.75
2022-09-18T11:57:22.418Z,16.39
2022-09-18T11:58:39.854Z,16.59
2022-09-18T11:59:54.915Z,16.55
2022-09-18T12:01:23.539Z,16.45
2022-09-18T12:02:45.368Z,16.04
2022-09-18T12:04:07.833Z,16.12
2022-09-18T12:05:25.555Z,16.44
2022-09-18T12:06:49.851Z,16.22
2022-09-18T12:08:28.787Z,16.75
2022-09-18T12:09:59.943Z,17.03
2022-09-18T12:11:25.842Z,16.87
2022-09-18T12:12:37.974Z,16.50
2022-09-18T12:13:49.257Z,16.55
2022-09-18T12:15:03.140Z,16.18
2022-09-18T12:16:31.099Z,16.20
2022-09-18T12:17:36.666Z,16.44
2022-09-18T12:18:50.215Z,16.48
2022-09-18T12:19:59.396Z,16.47
2022-09-18T12:21:14.033Z,16.70
2022-09-18T12:22:29.245Z,16.45
2022-09-18T12:23:32.284Z,16.27
2022-09-18T12:24:39.398Z,15.86
2022-09-18T12:26:09.768Z,15.83
2022-09-18T12:27:27.640Z,15.96
2022-09-18T12:28:42.342Z,15.79
2022-09-18T12:30:28.986Z,15.88
2022-09-18T12:31:44.239Z,16.14
2022-09-18T12:33:18.537Z,16.34
2022-09-18T12:34:39.832Z,16.47
2022-09-18T12:36:11.641Z,16.27
2022-09-18T12:37:38.320Z,16.11
2022-09-18T12:39:09.185Z,16.18
2022-09-18T12:40:34.082Z,16.50
2022-09-18T12:41:57.407Z,16.34
2022-09-18T12:42:59.527Z,16.24
2022-09-18T12:44:25.925Z,15.70
2022-09-18T12:45:46.631Z,15.86
2022-09-18T12:47:10.464Z,15.67
2022-09-18T12:48:31.020Z,15.43
2022-09-18T12:49:51.070Z,15.33
2022-09-18T12:51:31.767Z,15.03
2022-09-18T12:53:10.342Z,14.93
2022-09-18T12:54:39.178Z,14.87
2022-09-18T12:56:03.001Z,14.61
2022-09-18T12:57:21.477Z,14.83
2022-09-18T12:58:52.624Z,14.48
2022-09-18T13:00:08.760Z,14.41
2022-09-18T13:01:35.020Z,14.55
2022-09-18T13:02:54.238Z,14.42
2022-09-18T13:04:08.719Z,14.39
2022-09-18T13:05:42.783Z,14.52
2022-09-18T13:06:56.649Z,14.63
2022-09-18T13:08:05.974Z,14.68
2022-09-18T13:09:20.845Z,14.41
2022-09-18T13:10:29.028Z,14.42
2022-09-18T13:11:56.176Z,14.39
2022-09-18T13:13:05.183Z,14.30
2022-09-18T13:14:17.694Z,14.47
2022-09-18T13:15:26.337Z,14.39
2022-09-18T13:16:34.159Z,14.27
2022-09-18T13:17:41.833Z,14.19
2022-09-18T13:18:52.914Z,14.17
2022-09-18T13:20:23.070Z,14.09
2022-09-18T13:21:35.784Z,14.07
2022-09-18T13:22:39.448Z,14.26
2022-09-18T13:23:43.068Z,14.26
2022-09-18T13:24:48.491Z,14.41
2022-09-18T13:25:52.995Z,14.38
2022-09-18T13:26:56.598Z,14.37
2022-09-18T13:28:01.141Z,14.33
2022-09-18T13:29:04.108Z,14.41
2022-09-18T13:30:22.975Z,14.41
2022-09-18T13:31:27.820Z,14.64
2022-09-18T13:32:37.201Z,14.59
2022-09-18T13:33:57.766Z,14.50
2022-09-18T13:35:14.270Z,14.41
2022-09-18T13:36:30.594Z,14.24
2022-09-18T13:37:32.967Z,14.32
2022-09-18T13:38:35.439Z,14.30
2022-09-18T13:39:55.412Z,14.24
2022-09-18T13:41:04.622Z,14.43
2022-09-18T13:42:06.916Z,14.55
2022-09-18T13:43:39.185Z,14.73
2022-09-18T13:44:41.408Z,14.95
2022-09-18T13:45:43.584Z,14.74
2022-09-18T13:46:48.118Z,14.89
2022-09-18T13:48:20.256Z,15.14
2022-09-18T13:49:30.083Z,15.31
2022-09-18T13:50:35.244Z,15.20
2022-09-18T13:51:37.514Z,15.23
2022-09-18T13:52:43.830Z,15.62
2022-09-18T13:53:46.291Z,15.42
2022-09-18T13:55:13.034Z,15.45
2022-09-18T13:56:17.154Z,15.51
2022-09-18T13:57:21.021Z,15.83
2022-09-18T13:58:55.861Z,16.09
2022-09-18T14:00:01.709Z,15.81
2022-09-18T14:01:36.834Z,15.34
2022-09-18T14:02:40.706Z,15.13
2022-09-18T14:03:42.882Z,15.19
2022-09-18T14:04:48.379Z,15.46
2022-09-18T14:05:50.695Z,15.63
2022-09-18T14:06:52.966Z,15.44
2022-09-18T14:07:56.887Z,15.54
2022-09-18T14:08:59.092Z,15.69
2022-09-18T14:10:04.705Z,15.53
2022-09-18T14:11:17.591Z,15.41
2022-09-18T14:12:21.336Z,15.66
2022-09-18T14:13:54.231Z,15.75
2022-09-18T14:15:17.354Z,15.44
2022-09-18T14:16:20.001Z,15.67
2022-09-18T14:17:22.359Z,15.35
2022-09-18T14:18:31.214Z,15.41
2022-09-18T14:19:34.070Z,15.60
2022-09-18T14:20:36.450Z,15.90
2022-09-18T14:21:44.172Z,15.50
2022-09-18T14:22:46.402Z,15.46
2022-09-18T14:23:48.528Z,15.25
2022-09-18T14:24:50.690Z,15.37
2022-09-18T14:25:52.951Z,15.16
2022-09-18T14:26:59.241Z,15.16
2022-09-18T14:28:05.153Z,15.26
2022-09-18T14:29:17.092Z,15.06
2022-09-18T14:30:25.343Z,15.21
2022-09-18T14:31:30.103Z,15.16
2022-09-18T14:32:33.134Z,15.43
2022-09-18T14:33:36.005Z,15.29
2022-09-18T14:34:40.870Z,15.34
2022-09-18T14:35:49.578Z,15.50
2022-09-18T14:36:55.149Z,15.37
2022-09-18T14:37:57.436Z,15.38
2022-09-18T14:38:59.579Z,15.52
2022-09-18T14:40:12.816Z,15.36
2022-09-18T14:41:22.957Z,15.31
2022-09-18T14:42:33.325Z,15.06
2022-09-18T14:43:39.886Z,14.98
2022-09-18T14:44:48.887Z,15.30
2022-09-18T14:45:51.781Z,15.31
2022-09-18T14:46:55.670Z,15.44
2022-09-18T14:47:59.452Z,15.13
2022-09-18T14:49:03.041Z,15.22
2022-09-18T14:50:35.032Z,15.21
2022-09-18T14:52:02.793Z,15.05
2022-09-18T14:53:25.975Z,15.13
2022-09-18T14:54:29.934Z,14.95
2022-09-18T14:55:39.135Z,14.91
2022-09-18T14:56:42.208Z,14.89
2022-09-18T14:58:15.557Z,14.66
2022-09-18T14:59:19.288Z,14.57
2022-09-18T15:00:25.896Z,14.59
2022-09-18T15:01:31.617Z,14.59
2022-09-18T15:02:37.113Z,14.62
2022-09-18T15:03:46.062Z,14.76
2022-09-18T15:04:48.996Z,14.91
2022-09-18T15:06:04.708Z,15.03
2022-09-18T15:07:07.158Z,14.95
2022-09-18T15:08:18.777Z,14.75
2022-09-18T15:09:29.503Z,14.73
2022-09-18T15:10:35.308Z,14.58
2022-09-18T15:12:01.382Z,14.66
2022-09-18T15:13:07.959Z,14.70
2022-09-18T15:14:40.550Z,14.53
2022-09-18T15:15:46.295Z,14.31
2022-09-18T15:17:00.823Z,14.42
2022-09-18T15:18:03.468Z,14.56
2022-09-18T15:19:17.052Z,14.59
2022-09-18T15:20:20.248Z,14.53
2022-09-18T15:21:24.525Z,14.66
2022-09-18T15:22:28.462Z,14.59
2022-09-18T15:23:38.155Z,14.54
2022-09-18T15:24:40.569Z,14.63
2022-09-18T15:25:44.253Z,14.76
2022-09-18T15:26:56.140Z,14.89
2022-09-18T15:28:03.900Z,14.87
2022-09-18T15:29:18.858Z,14.75
2022-09-18T15:30:23.817Z,14.68
2022-09-18T15:31:30.325Z,14.57